createdAt,value
2023-04-21T00:03:15.215Z,82.80
2023-04-21T00:08:19.118Z,82.80
2023-04-21T00:13:21.329Z,83.20
2023-04-21T00:18:24.842Z,83.60
2023-04-21T00:23:26.975Z,83.00
2023-04-21T00:28:29.603Z,83.10
2023-04-21T00:33:33.208Z,83.40
2023-04-21T00:38:35.350Z,83.50
2023-04-21T00:43:37.529Z,83.00
2023-04-21T00:48:41.021Z,82.70
2023-04-21T00:53:43.828Z,82.50
2023-04-21T00:58:46.833Z,82.20
2023-04-21T01:03:50.936Z,82.10
2023-04-21T01:08:53.388Z,82.30
2023-04-21T01:13:56.282Z,82.80
2023-04-21T01:18:59.888Z,82.60
2023-04-21T01:24:03.590Z,84.10
2023-04-21T01:29:05.681Z,83.50
2023-04-21T01:34:08.009Z,83.40
2023-04-21T01:39:11.509Z,83.80
2023-04-21T01:44:13.597Z,83.40
2023-04-21T01:49:15.786Z,84.10
2023-04-21T01:54:19.554Z,84.30
2023-04-21T01:59:21.859Z,84.50
2023-04-21T02:04:24.084Z,85.70
2023-04-21T02:09:27.879Z,84.70
2023-04-21T02:14:29.980Z,85.50
2023-04-21T02:19:32.027Z,85.60
2023-04-21T02:24:35.557Z,85.70
2023-04-21T02:29:37.713Z,85.40
2023-04-21T02:34:39.811Z,86.90
2023-04-21T02:39:43.310Z,86.10
2023-04-21T02:44:45.379Z,86.80
2023-04-21T02:49:47.602Z,85.80
2023-04-21T02:54:51.145Z,86.30
2023-04-21T02:59:53.311Z,86.20
2023-04-21T03:04:55.407Z,86.30
2023-04-21T03:09:59.019Z,87.00
2023-04-21T03:15:01.112Z,87.40
2023-04-21T03:20:03.411Z,86.90
2023-04-21T03:25:07.659Z,86.90
2023-04-21T03:30:10.961Z,86.90
2023-04-21T03:35:13.086Z,86.70
2023-04-21T03:40:16.620Z,86.80
2023-04-21T03:45:18.869Z,86.60
2023-04-21T03:50:21.136Z,87.40
2023-04-21T03:55:24.647Z,87.60
2023-04-21T04:00:26.925Z,87.60
2023-04-21T04:05:29.108Z,87.60
2023-04-21T04:10:32.639Z,87.30
2023-04-21T04:15:34.861Z,88.20
2023-04-21T04:20:37.591Z,88.30
2023-04-21T04:25:41.105Z,88.20
2023-04-21T04:30:43.236Z,87.60
2023-04-21T04:35:45.389Z,88.50
2023-04-21T04:40:55.362Z,88.70
2023-04-21T04:45:57.503Z,89.10
2023-04-21T04:50:59.622Z,88.80
2023-04-21T04:56:03.143Z,88.90
2023-04-21T05:01:12.036Z,88.70
2023-04-21T05:06:14.283Z,88.50
2023-04-21T05:11:17.940Z,88.00
2023-04-21T05:16:20.074Z,87.20
2023-04-21T05:21:26.332Z,86.50
2023-04-21T05:26:30.518Z,85.70
2023-04-21T05:31:32.674Z,84.60
2023-04-21T05:36:34.752Z,83.90
2023-04-21T05:41:38.264Z,82.80
2023-04-21T05:46:40.591Z,83.10
2023-04-21T05:51:43.058Z,82.10
2023-04-21T05:56:46.747Z,81.10
2023-04-21T06:01:48.834Z,78.60
2023-04-21T06:06:51.072Z,78.40
2023-04-21T06:11:54.838Z,76.70
2023-04-21T06:16:56.998Z,76.00
2023-04-21T06:22:00.473Z,75.60
2023-04-21T06:27:04.343Z,74.00
2023-04-21T06:32:06.651Z,74.20
2023-04-21T06:37:08.857Z,73.10
2023-04-21T06:42:12.569Z,73.50
2023-04-21T06:47:14.956Z,72.00
2023-04-21T06:52:18.275Z,71.70
2023-04-21T06:57:24.569Z,70.20
2023-04-21T07:02:26.918Z,67.60
2023-04-21T07:07:29.310Z,68.90
2023-04-21T07:12:33.004Z,68.30
2023-04-21T07:17:35.161Z,67.60
2023-04-21T07:22:37.417Z,68.40
2023-04-21T07:27:41.093Z,65.90
2023-04-21T07:32:43.264Z,64.40
2023-04-21T07:37:45.462Z,66.40
2023-04-21T07:42:49.302Z,64.30
2023-04-21T07:47:51.592Z,62.80
2023-04-21T07:52:54.194Z,62.60
2023-04-21T07:57:57.748Z,62.50
2023-04-21T08:03:00.144Z,62.70
2023-04-21T08:08:02.737Z,61.50
2023-04-21T08:13:06.630Z,61.70
2023-04-21T08:18:09.367Z,58.90
2023-04-21T08:23:11.734Z,58.30
2023-04-21T08:28:15.281Z,58.60
2023-04-21T08:33:17.636Z,57.40
2023-04-21T08:38:19.971Z,57.90
2023-04-21T08:43:23.854Z,58.00
2023-04-21T08:48:28.111Z,59.20
2023-04-21T08:53:30.414Z,57.70
2023-04-21T08:58:34.049Z,57.00
2023-04-21T09:03:36.376Z,55.10
2023-04-21T09:08:44.229Z,52.60
2023-04-21T09:13:47.781Z,53.90
2023-04-21T09:18:50.324Z,55.20
2023-04-21T09:23:53.549Z,54.70
2023-04-21T09:28:57.259Z,56.10
2023-04-21T09:34:01.217Z,55.60
2023-04-21T09:44:13.593Z,55.60
2023-04-21T09:49:18.371Z,52.00
2023-04-21T09:59:33.057Z,53.60
2023-04-21T10:04:37.798Z,52.90
2023-04-21T10:09:46.257Z,52.40
2023-04-21T10:14:52.782Z,51.50
2023-04-21T10:19:56.699Z,50.00
2023-04-21T10:25:00.988Z,50.70
2023-04-21T10:30:19.302Z,49.30
2023-04-21T10:35:23.200Z,49.50
2023-04-21T10:40:43.914Z,48.50
2023-04-21T10:45:48.433Z,48.30
2023-04-21T10:50:50.579Z,48.90
2023-04-21T10:55:53.438Z,48.30
2023-04-21T11:00:57.559Z,47.60
2023-04-21T11:05:59.698Z,47.50
2023-04-21T11:11:01.834Z,48.20
2023-04-21T11:16:07.361Z,47.90
2023-04-21T11:21:14.237Z,47.30
2023-04-21T11:26:16.495Z,45.70
2023-04-21T11:31:20.439Z,47.20
2023-04-21T11:36:22.952Z,46.80
2023-04-21T11:41:25.662Z,47.60
2023-04-21T11:46:29.927Z,47.30
2023-04-21T11:51:35.946Z,46.70
2023-04-21T11:56:40.295Z,46.20
2023-04-21T12:01:48.038Z,44.80
2023-04-21T12:06:59.095Z,45.10
2023-04-21T12:12:03.670Z,45.20
2023-04-21T12:17:07.558Z,44.20
2023-04-21T12:22:11.505Z,43.90
2023-04-21T12:27:14.177Z,45.60
2023-04-21T12:32:17.751Z,46.00
2023-04-21T12:37:21.221Z,45.00
2023-04-21T12:42:23.407Z,45.30
2023-04-21T12:47:27.018Z,45.30
2023-04-21T12:52:29.210Z,43.30
2023-04-21T12:57:31.681Z,45.00
2023-04-21T13:02:35.762Z,42.50
2023-04-21T13:07:38.363Z,41.30
2023-04-21T13:12:40.456Z,41.90
2023-04-21T13:17:44.217Z,40.30
2023-04-21T13:22:46.318Z,41.90
2023-04-21T13:27:48.591Z,41.70
2023-04-21T13:32:52.372Z,42.10
2023-04-21T13:37:54.754Z,43.30
2023-04-21T13:42:57.040Z,43.60
2023-04-21T13:48:00.737Z,42.90
2023-04-21T13:53:03.031Z,42.90
2023-04-21T13:58:05.191Z,43.50
2023-04-21T14:03:09.800Z,43.60
2023-04-21T14:08:12.551Z,43.10
2023-04-21T14:13:23.309Z,42.20
2023-04-21T14:18:37.017Z,41.40
2023-04-21T14:23:39.401Z,42.40
2023-04-21T14:28:41.741Z,43.70
2023-04-21T14:33:45.241Z,43.80
2023-04-21T14:38:47.525Z,43.60
2023-04-21T14:43:50.058Z,43.70
2023-04-21T14:48:54.182Z,44.70
2023-04-21T14:53:56.446Z,44.30
2023-04-21T14:58:58.676Z,41.60
2023-04-21T15:04:02.730Z,41.20
2023-04-21T15:09:05.148Z,45.10
2023-04-21T15:14:07.404Z,39.90
2023-04-21T15:19:10.895Z,39.10
2023-04-21T15:24:13.130Z,38.50
2023-04-21T15:29:15.353Z,39.80
2023-04-21T15:34:18.886Z,39.30
2023-04-21T15:39:21.022Z,38.50
2023-04-21T15:44:23.204Z,37.00
2023-04-21T15:49:26.955Z,37.40
2023-04-21T15:54:29.255Z,36.50
2023-04-21T15:59:31.394Z,36.60
2023-04-21T16:04:35.253Z,36.20
2023-04-21T16:09:38.273Z,35.90
2023-04-21T16:14:54.564Z,35.80
2023-04-21T16:20:00.994Z,36.10
2023-04-21T16:25:03.270Z,37.40
2023-04-21T16:30:08.403Z,36.20
2023-04-21T16:35:12.267Z,37.30
2023-04-21T16:40:14.408Z,38.00
2023-04-21T16:45:16.712Z,37.30
2023-04-21T16:50:20.305Z,37.70
2023-04-21T16:55:22.495Z,37.20
2023-04-21T17:00:24.830Z,37.80
2023-04-21T17:05:28.369Z,38.50
2023-04-21T17:10:30.459Z,38.90
2023-04-21T17:15:33.509Z,38.90
2023-04-21T17:20:37.081Z,40.10
2023-04-21T17:25:39.474Z,39.20
2023-04-21T17:30:41.706Z,39.40
2023-04-21T17:35:59.993Z,39.90
2023-04-21T17:41:05.363Z,40.70
2023-04-21T17:46:07.713Z,40.40
2023-04-21T17:51:11.319Z,40.90
2023-04-21T17:56:13.758Z,41.00
2023-04-21T18:01:15.916Z,41.00
2023-04-21T18:06:19.621Z,41.30
2023-04-21T18:11:21.890Z,41.40
2023-04-21T18:16:24.104Z,42.00
2023-04-21T18:21:27.863Z,42.20
2023-04-21T18:26:29.991Z,42.50
2023-04-21T18:31:32.326Z,43.10
2023-04-21T18:36:38.209Z,45.80
2023-04-21T18:41:40.791Z,47.60
2023-04-21T18:46:42.960Z,49.60
2023-04-21T18:51:47.093Z,51.00
2023-04-21T18:56:51.268Z,52.50
2023-04-21T19:01:53.557Z,53.30
2023-04-21T19:06:57.221Z,54.00
2023-04-21T19:11:59.392Z,54.40
2023-04-21T19:17:01.571Z,55.00
2023-04-21T19:22:05.121Z,55.00
2023-04-21T19:27:07.227Z,56.00
2023-04-21T19:32:10.708Z,56.30
2023-04-21T19:37:15.672Z,56.90
2023-04-21T19:42:18.227Z,57.40
2023-04-21T19:52:48.336Z,59.10
2023-04-21T19:57:50.834Z,59.80
2023-04-21T20:02:53.429Z,59.80
2023-04-21T20:07:57.645Z,60.50
2023-04-21T20:13:01.910Z,60.80
2023-04-21T20:18:04.406Z,61.10
2023-04-21T20:23:08.317Z,62.10
2023-04-21T20:28:10.535Z,62.20
2023-04-21T20:33:12.874Z,63.30
2023-04-21T20:38:16.638Z,62.90
2023-04-21T20:43:19.103Z,63.30
2023-04-21T20:48:21.422Z,63.00
2023-04-21T20:53:25.307Z,63.40
2023-04-21T20:58:27.785Z,64.80
2023-04-21T21:03:30.090Z,64.80
2023-04-21T21:08:34.926Z,65.40
2023-04-21T21:13:37.418Z,65.60
2023-04-21T21:18:39.617Z,65.50
2023-04-21T21:23:43.607Z,66.20
2023-04-21T21:28:46.026Z,66.70
2023-04-21T21:33:48.582Z,67.70
2023-04-21T21:38:52.479Z,68.10
2023-04-21T21:43:54.758Z,68.30
2023-04-21T21:48:57.137Z,68.50
2023-04-21T21:54:09.552Z,67.80
2023-04-21T21:59:12.133Z,68.40
2023-04-21T22:04:14.645Z,69.00
2023-04-21T22:09:20.489Z,69.90
2023-04-21T22:14:23.990Z,70.00
2023-04-21T22:19:26.864Z,71.30
2023-04-21T22:24:30.610Z,71.80
2023-04-21T22:29:33.231Z,72.00
2023-04-21T22:34:35.877Z,72.20
2023-04-21T22:39:39.817Z,72.70
2023-04-21T22:44:42.815Z,72.70
2023-04-21T22:49:45.077Z,72.10
2023-04-21T22:54:49.101Z,72.70
2023-04-21T22:59:52.150Z,72.30
2023-04-21T23:04:55.060Z,72.40
2023-04-21T23:09:58.766Z,72.20
2023-04-21T23:15:01.140Z,72.50
2023-04-21T23:20:03.819Z,72.80
2023-04-21T23:25:09.393Z,73.10
2023-04-21T23:30:12.676Z,72.50
2023-04-21T23:35:15.039Z,73.30
2023-04-21T23:40:19.176Z,73.50
2023-04-21T23:45:21.851Z,72.70
2023-04-21T23:50:34.841Z,72.80
2023-04-21T23:55:42.261Z,72.50
